Aviation

Metar/Speci

station

VRMH

METAR VRMH 071300Z 31008KT 9999 FEW018TCU SCT120 BKN250 29/26 Q1009=

4 minutes ago

VRMM

METAR VRMM 071300Z 33010KT 9999 FEW017TCU BKN120 OVC250 29/26 Q1009 TEMPO FEW018CB=

3 minutes ago

VRMK

METAR VRMK 071300Z 05004KT 9999 -SHRA FEW017 FEW018CB BKN120 28/26 Q1009 CB N,SW,W=

3 minutes ago

VRMT

SPECI VRMT 071252Z 05005KT 9000 SCT017 FEW018CB BKN120 27/25 Q1009 RETS CB NE,SSE,NW=

3 minutes ago

VRMG

METAR VRMG 071300Z 11006KT 7000 -SHRA SCT017 FEW018CB BKN110 27/26 Q1009 CB N,E,SE,W,OVHD TEMPO 5000 SHRA=

4 minutes ago

Synop

station

43533

AAXX 07124 43533 12462 73208 10294 20265 30086 40088 69902 8227/ 333 10312 58019 82818 87362=

1 hour ago

43555

AAXX 07124 43555 12465 83409 10296 20264 30084 40086 60002 82277 333 10310 58021 82818 84362 88275=

1 hour ago

43577

AAXX 07124 43577 11459 70903 10282 20258 30085 40087 69912 78082 8397/ 333 10300 58018 82817 81918 87362=

1 hour ago

43588

AAXX 07124 43588 11459 71405 10276 20257 30082 40083 69952 71798 8497/ 333 10306 58010 83817 81918 87362=

1 hour ago

43599

AAXX 07124 43599 11457 71107 10284 20265 30083 40085 60012 78082 84966 333 10314 58009 83817 81918 84361 87276=

1 hour ago

Tafs

station

VRMH

VRMH 071100Z 0712/0818 30010KT 9999 FEW018TCU SCT110 TEMPO 0712/0718 5000 TSRA FEW018CB=

2 hours ago

VRMM

VRMM 071100Z 0712/0818 33010KT 9999 FEW018TCU SCT110 TEMPO 0712/0718 5000 TSRA FEW17CB=

2 hours ago

VRMK

VRMK 071100Z 0712/0812 10005KT 9999 FEW018TCU BKN110 TEMPO 0712/0718 5000 TSRA FEW17CB=

2 hours ago

VRMT

VRMT 071100Z 0712/0812 09008KT 9999 FEW018TCU BKN110 TEMPO 0712/0718 5000 TSRA FEW018CB=

2 hours ago

VRMG

VRMG 071100Z 0712/0818 10008KT 9999 FEW018TCU BKN110 TEMPO 0712/0718 5000 TSRA FEW018CB=

2 hours ago

Sigmet

Flight folders

No flight folder available at the moment.